Time;durP1;ratioP1;P1;durP2;ratioP2;P2;SDS_P1;SDS_P2;PMS_P1;PMS_P2;Temp;Humidity;BMP_temperature;BMP_pressure;BME280_temperature;BME280_humidity;BME280_pressure;Samples;Min_cycle;Max_cycle;Signal;HPM_P1;HPM_P2
2023/06/26 00:01:34;;;;;;;9.10;4.55;;;;;;;22.73;100.00;101325.13;5202669;28;20389;-69
2023/06/26 00:04:05;;;;;;;7.53;4.57;;;;;;;22.70;100.00;101327.50;5202852;28;20075;-70
2023/06/26 00:06:35;;;;;;;10.02;4.95;;;;;;;22.63;100.00;101318.56;5202379;28;20029;-70
2023/06/26 00:09:06;;;;;;;9.73;5.00;;;;;;;22.59;100.00;101314.63;5202756;28;20084;-70
2023/06/26 00:11:36;;;;;;;9.50;4.00;;;;;;;22.59;100.00;101314.63;5202697;28;20025;-69
2023/06/26 00:14:07;;;;;;;7.20;3.45;;;;;;;22.55;100.00;101317.00;5202849;28;20026;-70
2023/06/26 00:16:37;;;;;;;8.32;3.90;;;;;;;22.45;100.00;101323.03;5233941;28;20079;-69
2023/06/26 00:19:08;;;;;;;8.68;3.97;;;;;;;22.37;100.00;101323.38;5202614;28;20409;-70
2023/06/26 00:21:38;;;;;;;9.18;4.38;;;;;;;22.29;100.00;101323.72;5202720;28;20025;-70
2023/06/26 00:24:09;;;;;;;8.57;4.53;;;;;;;22.22;100.00;101331.97;5202385;28;20142;-70
2023/06/26 00:26:39;;;;;;;6.65;4.47;;;;;;;22.18;100.00;101324.47;5202045;28;20028;-69
2023/06/26 00:29:10;;;;;;;7.03;4.32;;;;;;;22.14;100.00;101328.72;5202618;28;20472;-69
2023/06/26 00:31:40;;;;;;;8.50;5.13;;;;;;;22.08;100.00;101335.09;5202372;28;20048;-69
2023/06/26 00:34:11;;;;;;;9.13;4.47;;;;;;;22.03;100.00;101338.53;5202412;28;20104;-69
2023/06/26 00:36:43;;;;;;;9.88;4.30;;;;;;;22.00;100.00;101335.44;5201913;28;20403;-70
2023/06/26 00:39:13;;;;;;;8.73;4.47;;;;;;;21.92;100.00;101329.19;5202554;28;20421;-70
2023/06/26 00:41:44;;;;;;;10.13;4.68;;;;;;;21.89;100.00;101332.41;5202570;28;20113;-70
2023/06/26 00:44:14;;;;;;;10.65;4.57;;;;;;;21.89;100.00;101337.88;5202604;28;20026;-70
2023/06/26 00:46:45;;;;;;;10.90;4.68;;;;;;;21.84;100.00;101329.53;5201473;28;20037;-70
2023/06/26 00:49:16;;;;;;;7.30;4.22;;;;;;;21.77;100.00;101330.66;5205556;28;20029;-70
2023/06/26 00:51:47;;;;;;;8.75;4.53;;;;;;;21.71;100.00;101335.97;5206293;28;20471;-70
2023/06/26 00:54:20;;;;;;;10.43;4.03;;;;;;;21.63;100.00;101327.25;5206236;28;20029;-69
2023/06/26 00:56:50;;;;;;;9.35;4.60;;;;;;;21.55;100.00;101330.31;5205847;28;20017;-69
2023/06/26 00:59:21;;;;;;;8.85;4.68;;;;;;;21.45;100.00;101337.13;5205713;28;20100;-69
2023/06/26 01:01:51;;;;;;;8.88;4.43;;;;;;;21.38;100.00;101338.22;5206629;28;20021;-69
2023/06/26 01:04:27;;;;;;;6.38;4.40;;;;;;;21.30;100.00;101335.78;5206571;28;20483;-70
2023/06/26 01:06:59;;;;;;;10.60;4.65;;;;;;;21.24;100.00;101342.97;5205827;28;20021;-70
2023/06/26 01:09:31;;;;;;;8.52;4.53;;;;;;;21.16;100.00;101348.72;5205874;28;20022;-70
2023/06/26 01:12:02;;;;;;;9.30;4.50;;;;;;;21.13;100.00;101349.16;5205906;28;20032;-70
2023/06/26 01:14:36;;;;;;;10.65;4.03;;;;;;;21.11;100.00;101352.09;5193032;28;20025;-70
2023/06/26 01:17:07;;;;;;;9.15;4.57;;;;;;;21.13;100.00;101362.78;5205208;28;20029;-70
2023/06/26 01:19:39;;;;;;;11.20;4.75;;;;;;;21.12;100.00;101363.84;5206083;28;20021;-69
2023/06/26 01:22:14;;;;;;;11.48;4.57;;;;;;;21.05;100.00;101358.47;5205342;28;20109;-70
2023/06/26 01:25:04;;;;;;;8.50;4.47;;;;;;;21.02;100.00;101368.97;5206075;28;20504;-70
2023/06/26 01:27:36;;;;;;;8.70;4.70;;;;;;;20.98;100.00;101357.66;5193225;28;20394;-69
2023/06/26 01:30:08;;;;;;;8.65;4.63;;;;;;;20.99;100.00;101361.25;5205783;28;20026;-70
2023/06/26 01:32:40;;;;;;;12.45;5.00;;;;;;;20.92;100.00;101373.03;5205532;28;20375;-69
2023/06/26 01:35:11;;;;;;;8.55;4.78;;;;;;;20.88;100.00;101374.56;5205747;28;20021;-70
2023/06/26 01:37:41;;;;;;;7.22;4.07;;;;;;;20.84;100.00;101367.88;5205226;28;20025;-69
2023/06/26 01:40:12;;;;;;;9.50;4.32;;;;;;;20.76;100.00;101370.03;5205736;28;20025;-69
2023/06/26 01:42:42;;;;;;;10.07;4.55;;;;;;;20.68;100.00;101374.69;5205696;28;20037;-70
2023/06/26 01:45:24;;;;;;;9.02;4.38;;;;;;;20.61;100.00;101378.50;5205232;28;20035;-69
2023/06/26 01:47:59;;;;;;;7.78;4.80;;;;;;;20.60;100.00;101383.13;5204776;28;20033;-70
2023/06/26 01:50:34;;;;;;;9.45;4.75;;;;;;;20.59;100.00;101377.91;5205678;28;20083;-69
2023/06/26 01:53:17;;;;;;;7.32;4.30;;;;;;;20.54;100.00;101377.72;5205436;28;20063;-69
2023/06/26 01:56:01;;;;;;;9.25;4.35;;;;;;;20.53;100.00;101379.59;5205030;28;20840;-69
2023/06/26 01:58:47;;;;;;;12.35;4.10;;;;;;;20.48;100.00;101373.13;5204985;28;20071;-70
2023/06/26 02:01:18;;;;;;;10.93;4.68;;;;;;;20.43;100.00;101373.75;5205257;28;20030;-69
2023/06/26 02:03:52;;;;;;;10.05;4.75;;;;;;;20.40;100.00;101379.66;5205032;28;20033;-70
2023/06/26 02:06:22;;;;;;;6.65;4.43;;;;;;;20.38;100.00;101379.03;5204569;28;20087;-69
2023/06/26 02:08:56;;;;;;;10.75;4.57;;;;;;;20.33;100.00;101376.13;5204510;28;20476;-69
2023/06/26 02:11:27;;;;;;;7.18;4.20;;;;;;;20.28;100.00;101375.94;5204858;28;20113;-69
2023/06/26 02:13:57;;;;;;;8.95;4.30;;;;;;;20.23;100.00;101384.78;5204707;28;20041;-70
2023/06/26 02:16:28;;;;;;;8.80;4.80;;;;;;;20.22;100.00;101387.72;5203961;28;20456;-70
2023/06/26 02:18:59;;;;;;;10.60;4.38;;;;;;;20.20;100.00;101382.50;5204310;28;20036;-70
2023/06/26 02:21:29;;;;;;;12.07;4.20;;;;;;;20.17;100.00;101381.03;5204465;28;20017;-70
2023/06/26 02:24:00;;;;;;;13.18;4.90;;;;;;;20.15;100.00;101385.88;5204200;28;20021;-69
2023/06/26 02:26:32;;;;;;;6.78;3.97;;;;;;;20.09;100.00;101380.44;5203907;28;20029;-69
2023/06/26 02:29:02;;;;;;;8.32;4.32;;;;;;;20.09;100.00;101386.72;5203623;28;20032;-69
2023/06/26 02:31:33;;;;;;;10.43;5.30;;;;;;;20.05;100.00;101393.66;5204267;28;20072;-69
2023/06/26 02:34:04;;;;;;;9.02;4.22;;;;;;;20.02;100.00;101385.91;5204213;28;20026;-70
2023/06/26 02:36:34;;;;;;;8.48;4.07;;;;;;;19.96;100.00;101402.28;5203525;28;20057;-69
2023/06/26 02:39:05;;;;;;;13.23;5.35;;;;;;;19.86;100.00;101402.72;5204284;28;20244;-70
2023/06/26 02:41:36;;;;;;;15.38;4.65;;;;;;;19.76;100.00;101407.78;5203950;28;20474;-69
2023/06/26 02:44:06;;;;;;;10.80;4.00;;;;;;;19.74;100.00;101407.16;5203995;28;20104;-69
2023/06/26 02:46:37;;;;;;;9.77;4.40;;;;;;;19.70;100.00;101414.91;5203116;28;20017;-70
2023/06/26 02:49:07;;;;;;;11.35;4.28;;;;;;;19.67;100.00;101409.88;5203668;28;20036;-70
2023/06/26 02:51:38;;;;;;;11.93;4.32;;;;;;;19.66;100.00;101410.94;5203760;28;20543;-70
2023/06/26 02:54:08;;;;;;;10.98;4.20;;;;;;;19.64;100.00;101416.59;5203584;28;20033;-69
2023/06/26 02:56:39;;;;;;;15.88;4.78;;;;;;;19.64;100.00;101422.06;5190199;28;20020;-69
2023/06/26 02:59:09;;;;;;;11.52;4.65;;;;;;;19.73;100.00;101419.09;5203535;28;20108;-69
2023/06/26 03:01:40;;;;;;;10.10;4.63;;;;;;;19.74;100.00;101424.34;5203759;28;20033;-70
2023/06/26 03:04:10;;;;;;;11.32;4.38;;;;;;;19.72;100.00;101426.41;5203320;28;20029;-70
2023/06/26 03:06:41;;;;;;;12.35;4.55;;;;;;;19.74;100.00;101421.63;5203080;28;20017;-69
2023/06/26 03:09:11;;;;;;;14.95;4.47;;;;;;;19.74;100.00;101426.22;5203487;28;20121;-70
2023/06/26 03:11:42;;;;;;;11.23;4.78;;;;;;;19.74;100.00;101428.94;5203089;28;20025;-70
2023/06/26 03:14:12;;;;;;;11.80;3.65;;;;;;;19.71;100.00;101432.09;5203741;28;20022;-70
2023/06/26 03:16:43;;;;;;;12.88;4.40;;;;;;;19.68;100.00;101425.19;5202829;28;20031;-70
2023/06/26 03:19:13;;;;;;;13.65;5.07;;;;;;;19.61;100.00;101432.50;5203291;28;20029;-69
2023/06/26 03:21:44;;;;;;;13.48;4.93;;;;;;;19.59;100.00;101434.59;5203251;28;20018;-69
2023/06/26 03:24:14;;;;;;;15.85;4.60;;;;;;;19.52;100.00;101450.91;5203126;28;20025;-69
2023/06/26 03:26:45;;;;;;;12.57;4.70;;;;;;;19.51;100.00;101442.97;5202879;28;20471;-69
2023/06/26 03:29:15;;;;;;;18.33;4.30;;;;;;;19.47;100.00;101447.16;5202857;28;20658;-69
2023/06/26 03:31:46;;;;;;;16.58;4.68;;;;;;;19.40;100.00;101448.00;5203520;28;20378;-69
2023/06/26 03:34:17;;;;;;;15.32;5.55;;;;;;;19.33;100.00;101447.16;5203233;28;20459;-70
2023/06/26 03:36:47;;;;;;;17.98;5.65;;;;;;;19.26;100.00;101456.38;5202553;28;20091;-69
2023/06/26 03:39:18;;;;;;;12.27;4.97;;;;;;;19.17;100.00;101461.16;5202946;28;20018;-69
2023/06/26 03:41:48;;;;;;;16.08;5.43;;;;;;;19.08;100.00;101451.56;5202599;28;20032;-69
2023/06/26 03:44:19;;;;;;;17.85;5.30;;;;;;;19.02;100.00;101463.25;5203125;28;20033;-69
2023/06/26 03:46:49;;;;;;;18.83;5.30;;;;;;;18.97;100.00;101466.56;5202228;28;20021;-69
2023/06/26 03:49:20;;;;;;;20.70;5.75;;;;;;;19.08;100.00;101482.31;5202469;28;20106;-69
2023/06/26 03:51:51;;;;;;;17.05;5.45;;;;;;;19.03;100.00;101479.38;5203045;28;20490;-69
2023/06/26 03:54:21;;;;;;;15.38;5.63;;;;;;;18.96;100.00;101483.09;5202443;28;20029;-69
2023/06/26 03:56:52;;;;;;;18.77;6.30;;;;;;;18.94;100.00;101485.19;5202558;28;20104;-70
2023/06/26 03:59:22;;;;;;;17.98;6.18;;;;;;;18.92;100.00;101490.00;5202598;28;20463;-70
2023/06/26 04:01:53;;;;;;;18.02;5.85;;;;;;;18.93;100.00;101494.41;5202851;28;20030;-69
2023/06/26 04:04:23;;;;;;;17.77;5.40;;;;;;;18.91;100.00;101496.47;5202669;28;20032;-69
2023/06/26 04:06:54;;;;;;;18.90;5.72;;;;;;;18.92;100.00;101500.88;5202271;28;20029;-70
2023/06/26 04:09:25;;;;;;;17.50;5.85;;;;;;;18.92;100.00;101506.31;5202460;28;20037;-69
2023/06/26 04:11:55;;;;;;;21.85;5.90;;;;;;;18.86;100.00;101507.97;5202685;28;20051;-69
2023/06/26 04:14:26;;;;;;;16.13;6.00;;;;;;;18.85;100.00;101507.13;5202848;28;20398;-70
2023/06/26 04:16:57;;;;;;;16.92;5.65;;;;;;;18.81;100.00;101516.72;5201874;28;20025;-69
2023/06/26 04:19:28;;;;;;;17.50;5.70;;;;;;;18.80;100.00;101512.34;5202378;28;20080;-69
2023/06/26 04:21:58;;;;;;;23.48;6.60;;;;;;;18.76;100.00;101510.22;5203801;28;20156;-69
2023/06/26 04:24:29;;;;;;;19.15;5.75;;;;;;;18.78;100.00;101519.03;5206551;28;20048;-69
2023/06/26 04:26:59;;;;;;;13.85;5.85;;;;;;;18.80;100.00;101520.50;5206207;28;20546;-69
2023/06/26 04:29:30;;;;;;;18.83;6.25;;;;;;;18.81;100.00;101519.44;5206560;28;20040;-69
2023/06/26 04:32:00;;;;;;;18.40;5.43;;;;;;;18.82;100.00;101523.84;5206245;28;20037;-69
2023/06/26 04:34:33;;;;;;;16.83;4.90;;;;;;;18.81;100.00;101529.50;5207007;28;20027;-69
2023/06/26 04:37:04;;;;;;;16.42;5.38;;;;;;;18.80;100.00;101522.38;5206141;28;20029;-69
2023/06/26 04:39:36;;;;;;;18.63;5.43;;;;;;;18.82;100.00;101532.00;5206872;28;20398;-69
2023/06/26 04:42:07;;;;;;;20.63;5.40;;;;;;;18.82;100.00;101537.44;5206511;28;20029;-70
2023/06/26 04:44:38;;;;;;;21.80;5.78;;;;;;;18.83;100.00;101544.56;5206071;28;20379;-69
2023/06/26 04:47:09;;;;;;;19.30;5.80;;;;;;;18.88;100.00;101542.06;5206080;28;20029;-70
2023/06/26 04:49:43;;;;;;;14.88;5.22;;;;;;;18.91;100.00;101545.41;5205903;28;20029;-69
2023/06/26 04:52:13;;;;;;;17.88;5.82;;;;;;;18.92;100.00;101541.66;5206397;28;20021;-69
2023/06/26 04:54:44;;;;;;;18.40;5.50;;;;;;;18.95;100.00;101550.25;5205788;28;20070;-69
2023/06/26 04:57:15;;;;;;;17.13;5.80;;;;;;;18.97;100.00;101550.88;5205850;28;20032;-69
2023/06/26 04:59:45;;;;;;;19.60;5.43;;;;;;;19.00;100.00;101545.03;5206071;28;20029;-69
2023/06/26 05:02:16;;;;;;;16.35;4.72;;;;;;;18.97;100.00;101548.16;5206389;28;20026;-70
2023/06/26 05:04:48;;;;;;;17.20;5.68;;;;;;;18.99;100.00;101556.94;5206003;28;20037;-69
2023/06/26 05:07:18;;;;;;;18.88;5.20;;;;;;;18.98;100.00;101547.13;5205245;28;20025;-69
2023/06/26 05:09:49;;;;;;;23.63;5.03;;;;;;;18.95;100.00;101554.84;5205919;28;20036;-69
2023/06/26 05:12:19;;;;;;;23.15;5.75;;;;;;;18.91;100.00;101553.56;5206034;28;20067;-69
2023/06/26 05:14:50;;;;;;;17.92;4.88;;;;;;;18.91;100.00;101567.16;5205979;28;20031;-69
2023/06/26 05:17:20;;;;;;;23.23;5.13;;;;;;;18.87;100.00;101575.72;5205096;28;20017;-70
2023/06/26 05:19:51;;;;;;;16.58;5.35;;;;;;;18.85;100.00;101580.53;5205642;28;20025;-71
2023/06/26 05:22:22;;;;;;;21.92;5.10;;;;;;;18.89;100.00;101579.09;5199647;28;20481;-69
2023/06/26 05:24:55;;;;;;;21.85;5.13;;;;;;;18.94;100.00;101585.81;5198846;28;20399;-69
2023/06/26 05:27:26;;;;;;;17.70;5.22;;;;;;;18.97;100.00;101594.38;5205162;28;20029;-69
2023/06/26 05:29:56;;;;;;;18.98;4.60;;;;;;;18.99;100.00;101583.31;5200748;28;20034;-69
2023/06/26 05:32:27;;;;;;;15.40;5.03;;;;;;;18.98;100.00;101584.34;5205173;28;20356;-69
2023/06/26 05:35:00;;;;;;;17.17;4.65;;;;;;;19.01;100.00;101595.63;5204298;28;20030;-69
2023/06/26 05:37:32;;;;;;;14.32;4.55;;;;;;;19.09;100.00;101592.75;5205016;28;20021;-69
2023/06/26 05:40:04;;;;;;;18.95;4.60;;;;;;;19.12;100.00;101605.09;5205262;28;20360;-69
2023/06/26 05:42:35;;;;;;;12.82;4.55;;;;;;;19.12;100.00;101605.91;5205173;28;20033;-70
2023/06/26 05:45:06;;;;;;;17.65;4.43;;;;;;;19.18;100.00;101603.44;5205322;28;20597;-69
2023/06/26 05:47:37;;;;;;;16.58;5.03;;;;;;;19.23;100.00;101603.66;5204581;28;20075;-69
2023/06/26 05:50:09;;;;;;;20.70;4.90;;;;;;;19.26;100.00;101606.81;5205214;28;20101;-69
2023/06/26 05:52:40;;;;;;;24.38;4.95;;;;;;;19.30;100.00;101607.25;5205218;28;20021;-70
2023/06/26 05:55:12;;;;;;;13.00;3.95;;;;;;;19.30;100.00;101618.13;5202440;28;20017;-69
2023/06/26 05:57:43;;;;;;;16.05;3.75;;;;;;;19.39;100.00;101625.06;5200776;28;20030;-70
2023/06/26 06:00:14;;;;;;;21.98;4.40;;;;;;;19.52;100.00;101629.69;5204752;28;20041;-69
2023/06/26 06:02:45;;;;;;;19.05;4.40;;;;;;;19.90;100.00;101627.25;5205005;28;20021;-69
2023/06/26 06:05:16;;;;;;;14.88;4.30;;;;;;;20.80;100.00;101619.41;5204764;28;20026;-69
2023/06/26 06:07:47;;;;;;;16.05;4.03;;;;;;;21.72;100.00;101626.25;5204394;28;20036;-69
2023/06/26 06:10:17;;;;;;;12.10;3.65;;;;;;;22.27;100.00;101631.09;5204641;28;20030;-70
2023/06/26 06:12:48;;;;;;;13.50;3.33;;;;;;;22.58;100.00;101625.50;5204815;28;20383;-70
2023/06/26 06:15:18;;;;;;;11.85;3.50;;;;;;;22.91;100.00;101621.59;5204450;28;20029;-70
2023/06/26 06:17:49;;;;;;;18.23;3.60;;;;;;;23.41;100.00;101624.91;5204138;28;20141;-70
2023/06/26 06:20:19;;;;;;;13.57;4.03;;;;;;;23.58;100.00;101625.09;5204421;28;20025;-70
2023/06/26 06:22:50;;;;;;;18.38;4.03;;;;;;;23.62;100.00;101630.94;5204513;28;20053;-71
2023/06/26 06:25:20;;;;;;;9.93;3.05;;;;;;;23.92;100.00;101637.22;5204378;28;20040;-70
2023/06/26 06:27:51;;;;;;;12.55;2.90;;;;;;;24.02;100.00;101644.88;5204207;28;20029;-70
2023/06/26 06:30:22;;;;;;;13.68;2.90;;;;;;;23.89;100.00;101645.91;5204332;28;20036;-70
2023/06/26 06:32:52;;;;;;;15.75;3.33;;;;;;;23.83;100.00;101652.34;5204218;28;20021;-70
2023/06/26 06:35:23;;;;;;;12.18;2.83;;;;;;;24.07;100.00;101658.69;5204079;28;20043;-70
2023/06/26 06:37:53;;;;;;;12.80;3.08;;;;;;;23.92;100.00;101656.41;5203931;28;20025;-71
2023/06/26 06:40:25;;;;;;;9.40;3.08;;;;;;;23.88;100.00;101660.69;5204245;28;20028;-70
2023/06/26 06:42:56;;;;;;;12.13;2.80;;;;;;;24.50;100.00;101661.16;5204138;28;20022;-70
2023/06/26 06:45:26;;;;;;;10.35;3.20;;;;;;;24.70;100.00;101666.25;5204281;28;20062;-70
2023/06/26 06:47:57;;;;;;;8.63;2.40;;;;;;;24.76;100.00;101667.19;5203489;28;20305;-70
2023/06/26 06:50:27;;;;;;;16.02;2.95;;;;;;;25.00;100.00;101677.06;5204234;28;20033;-70
2023/06/26 06:52:58;;;;;;;21.02;3.25;;;;;;;25.19;100.00;101682.41;5203995;28;20026;-70
2023/06/26 06:55:29;;;;;;;11.65;2.75;;;;;;;25.19;100.00;101693.38;5203530;28;20025;-71
2023/06/26 06:57:59;;;;;;;15.23;3.08;;;;;;;25.15;100.00;101711.41;5203420;28;20029;-70
2023/06/26 07:00:31;;;;;;;9.85;2.80;;;;;;;24.92;100.00;101699.38;5203846;28;20383;-70
2023/06/26 07:03:02;;;;;;;18.38;3.42;;;;;;;24.53;100.00;101698.22;5203748;28;20034;-70
2023/06/26 07:05:32;;;;;;;15.77;3.17;;;;;;;24.39;100.00;101707.75;5203554;28;20022;-70
2023/06/26 07:08:03;;;;;;;10.38;3.50;;;;;;;25.07;100.00;101703.56;5203212;28;20055;-70
2023/06/26 07:10:34;;;;;;;12.23;3.05;;;;;;;25.52;100.00;101685.25;5203718;28;20025;-70
2023/06/26 07:13:04;;;;;;;13.60;3.10;;;;;;;25.20;100.00;101703.28;5204043;28;20060;-71
2023/06/26 07:15:35;;;;;;;11.95;2.85;;;;;;;25.01;100.00;101706.16;5203523;28;20028;-70
2023/06/26 07:18:05;;;;;;;9.68;2.80;;;;;;;24.94;100.00;101710.13;5195249;28;20022;-70
2023/06/26 07:20:36;;;;;;;9.43;2.13;;;;;;;24.69;100.00;101710.38;5200175;28;20497;-69
2023/06/26 07:23:06;;;;;;;12.63;2.47;;;;;;;24.27;100.00;101715.94;5203342;28;20021;-71
2023/06/26 07:25:37;;;;;;;16.02;2.83;;;;;;;24.46;100.00;101714.81;5203082;28;20151;-71
2023/06/26 07:28:23;;;;;;;9.45;2.30;;;;;;;24.89;100.00;101724.56;5203304;28;20109;-70
2023/06/26 07:30:54;;;;;;;11.73;2.38;;;;;;;25.45;100.00;101728.53;5203189;28;20029;-70
2023/06/26 07:33:24;;;;;;;13.70;2.38;;;;;;;25.43;100.00;101730.69;5203303;28;20031;-70
2023/06/26 07:35:55;;;;;;;14.20;2.35;;;;;;;26.06;100.00;101734.38;5202923;28;20033;-71
2023/06/26 07:38:25;;;;;;;11.18;2.20;;;;;;;26.00;100.00;101733.44;5203056;28;20029;-70
2023/06/26 07:40:56;;;;;;;14.65;2.67;;;;;;;26.25;100.00;101727.53;5203328;28;20021;-70
2023/06/26 07:43:26;;;;;;;11.52;2.15;;;;;;;26.38;100.00;101726.38;5203087;28;20415;-70
2023/06/26 07:45:58;;;;;;;13.00;2.60;;;;;;;26.82;100.00;101727.38;5202871;28;20057;-70
2023/06/26 07:48:29;;;;;;;7.07;1.88;;;;;;;26.55;100.00;101720.88;5202892;28;20035;-70
2023/06/26 07:50:59;;;;;;;9.95;2.72;;;;;;;26.00;100.00;101724.34;5203058;28;20038;-70
2023/06/26 07:53:30;;;;;;;6.82;2.00;;;;;;;26.12;100.00;101732.56;5203165;28;20032;-71
2023/06/26 07:56:00;;;;;;;11.30;1.75;;;;;;;26.42;100.00;101737.72;5202051;28;20471;-70
2023/06/26 07:58:31;;;;;;;5.45;1.50;;;;;;;25.80;100.00;101741.31;5202877;28;20030;-70
2023/06/26 08:01:01;;;;;;;7.30;1.70;;;;;;;25.22;100.00;101747.81;5203003;28;20525;-70
2023/06/26 08:03:31;;;;;;;8.00;2.13;;;;;;;25.16;100.00;101746.88;5203189;28;20029;-71
2023/06/26 08:06:03;;;;;;;9.48;2.10;;;;;;;25.65;100.00;101736.31;5202245;28;20395;-71
2023/06/26 08:08:33;;;;;;;6.53;1.60;;;;;;;26.20;100.00;101737.63;5202674;28;20105;-70
2023/06/26 08:11:04;;;;;;;5.90;1.83;;;;;;;26.67;100.00;101731.81;5202710;28;20026;-70
2023/06/26 08:13:34;;;;;;;9.18;1.95;;;;;;;27.36;100.00;101744.09;5203096;28;20467;-70
2023/06/26 08:16:05;;;;;;;4.40;1.73;;;;;;;27.33;100.00;101732.75;5202292;28;20033;-70
2023/06/26 08:18:35;;;;;;;5.10;1.25;;;;;;;26.79;100.00;101740.81;5202566;28;20426;-70
2023/06/26 08:21:06;;;;;;;16.42;2.67;;;;;;;26.95;100.00;101748.19;5202507;28;20024;-71
2023/06/26 08:23:36;;;;;;;5.30;1.60;;;;;;;26.21;100.00;101751.16;5202794;28;20048;-71
2023/06/26 08:26:06;;;;;;;15.55;2.40;;;;;;;25.98;100.00;101754.84;5202323;28;20025;-70
2023/06/26 08:28:37;;;;;;;5.50;1.60;;;;;;;25.82;100.00;101739.16;5202697;28;20437;-71
2023/06/26 08:31:07;;;;;;;12.30;2.15;;;;;;;25.79;100.00;101745.13;5202750;28;20033;-70
2023/06/26 08:33:38;;;;;;;8.93;1.67;;;;;;;25.68;100.00;101748.75;5202395;28;20035;-70
2023/06/26 08:36:08;;;;;;;6.65;1.45;;;;;;;25.77;100.00;101737.16;5202056;28;20111;-71
2023/06/26 08:38:40;;;;;;;7.25;1.38;;;;;;;26.75;100.00;101750.63;5202549;28;20017;-70
2023/06/26 08:41:11;;;;;;;5.38;1.50;;;;;;;26.95;100.00;101759.19;5202809;28;20108;-71
2023/06/26 08:43:41;;;;;;;5.22;1.40;;;;;;;26.40;100.00;101762.72;5202722;28;20112;-70
2023/06/26 08:46:12;;;;;;;5.03;1.65;;;;;;;26.51;100.00;101766.53;5201733;28;20036;-70
2023/06/26 08:48:48;;;;;;;4.63;1.50;;;;;;;26.36;100.00;101764.31;5202333;28;20434;-70
2023/06/26 08:51:21;;;;;;;5.70;1.52;;;;;;;25.67;100.00;101766.31;5202576;28;20490;-71
2023/06/26 08:54:11;;;;;;;8.50;1.80;;;;;;;24.95;100.00;101773.03;5202729;28;20029;-70
2023/06/26 08:56:46;;;;;;;6.93;1.98;;;;;;;25.51;100.00;101770.69;5201820;28;20053;-71
2023/06/26 08:59:16;;;;;;;6.60;1.30;;;;;;;25.22;100.00;101775.28;5234397;28;20022;-70
2023/06/26 09:01:47;;;;;;;6.55;1.50;;;;;;;25.70;100.00;101780.38;5202489;28;20056;-71
2023/06/26 09:04:18;;;;;;;3.90;1.38;;;;;;;26.04;100.00;101770.34;5202418;28;20061;-71
2023/06/26 09:06:48;;;;;;;6.00;1.55;;;;;;;26.22;100.00;101762.97;5201508;28;20453;-71
2023/06/26 09:09:20;;;;;;;8.02;1.98;;;;;;;26.98;100.00;101774.38;5203994;28;20037;-71
2023/06/26 09:11:50;;;;;;;8.52;1.80;;;;;;;27.56;100.00;101789.50;5206310;28;20029;-71
2023/06/26 09:14:21;;;;;;;6.90;1.83;;;;;;;27.50;100.00;101785.03;5205946;28;20032;-71
2023/06/26 09:16:51;;;;;;;6.82;2.03;;;;;;;27.30;100.00;101788.34;5205260;28;20017;-71
2023/06/26 09:19:22;;;;;;;7.75;1.98;;;;;;;27.15;100.00;101794.47;5205720;28;20021;-71
2023/06/26 09:21:54;;;;;;;6.05;1.27;;;;;;;27.36;100.00;101796.44;5206084;28;20033;-70
2023/06/26 09:24:25;;;;;;;5.53;2.10;;;;;;;27.12;100.00;101807.94;5205946;28;20032;-71
2023/06/26 09:26:55;;;;;;;5.90;1.63;;;;;;;27.04;100.00;101800.91;5205458;28;20108;-71
2023/06/26 09:29:26;;;;;;;9.25;1.52;;;;;;;26.75;100.00;101808.44;5205778;28;20029;-71
2023/06/26 09:31:57;;;;;;;6.93;1.48;;;;;;;27.03;100.00;101821.28;5237382;28;20029;-71
2023/06/26 09:34:44;;;;;;;6.28;1.65;;;;;;;26.83;100.00;101810.78;5205972;28;20603;-71
2023/06/26 09:37:15;;;;;;;13.05;1.65;;;;;;;26.67;100.00;101809.72;5205362;28;20108;-70
2023/06/26 09:39:45;;;;;;;6.65;2.08;;;;;;;26.41;100.00;101807.56;5205848;28;20047;-70
2023/06/26 09:42:16;;;;;;;4.38;1.30;;;;;;;26.27;100.00;101809.81;5205436;28;20386;-71
2023/06/26 09:44:47;;;;;;;7.53;1.73;;;;;;;25.80;100.00;101810.88;5205528;28;20036;-70
2023/06/26 09:47:19;;;;;;;5.72;1.55;;;;;;;25.71;100.00;101809.56;5204765;28;20048;-71
2023/06/26 09:49:52;;;;;;;6.07;1.88;;;;;;;26.25;100.00;101811.97;5205292;28;20028;-70
2023/06/26 09:52:26;;;;;;;6.32;1.50;;;;;;;26.72;100.00;101809.78;5205616;28;20025;-70
2023/06/26 09:55:08;;;;;;;5.60;1.60;;;;;;;26.89;100.00;101808.94;5204905;28;20033;-70
2023/06/26 09:57:40;;;;;;;5.47;1.58;;;;;;;26.64;100.00;101818.47;5204711;28;20041;-70
2023/06/26 10:00:12;;;;;;;6.80;1.63;;;;;;;26.56;90.93;101822.47;5205198;28;20022;-71
2023/06/26 10:02:42;;;;;;;5.85;2.03;;;;;;;26.62;100.00;101817.88;5205087;28;20372;-71
2023/06/26 10:05:13;;;;;;;11.80;1.65;;;;;;;26.46;100.00;101818.72;5204817;28;20028;-71
2023/06/26 10:07:44;;;;;;;4.80;1.50;;;;;;;26.48;100.00;101831.13;5204539;28;20025;-71
2023/06/26 10:10:17;;;;;;;6.25;1.58;;;;;;;26.24;98.22;101835.06;5205096;28;20022;-72
2023/06/26 10:12:51;;;;;;;5.47;1.60;;;;;;;26.40;100.00;101837.00;5205045;28;20368;-71
2023/06/26 10:15:23;;;;;;;6.60;1.60;;;;;;;26.19;100.00;101824.78;5204864;28;20111;-71
2023/06/26 10:17:56;;;;;;;4.80;1.15;;;;;;;26.23;96.63;101831.47;5203813;28;20060;-70
2023/06/26 10:20:27;;;;;;;7.78;1.65;;;;;;;26.36;92.96;101824.84;5204338;28;20013;-70
2023/06/26 10:23:00;;;;;;;3.90;1.27;;;;;;;26.47;92.11;101823.97;5204917;28;20048;-71
2023/06/26 10:25:31;;;;;;;7.20;1.80;;;;;;;26.36;79.03;101838.59;5204492;28;20017;-71
2023/06/26 10:28:03;;;;;;;3.42;1.23;;;;;;;26.32;82.34;101834.66;5204147;28;20390;-71
2023/06/26 10:30:36;;;;;;;7.38;1.65;;;;;;;26.41;80.29;101835.94;5191891;28;20384;-71
2023/06/26 10:33:08;;;;;;;3.60;1.02;;;;;;;26.26;79.44;101850.25;5199336;28;20442;-70
2023/06/26 10:36:16;;;;;;;5.32;1.67;;;;;;;26.21;89.43;101841.06;5204047;28;20025;-70
2023/06/26 10:39:05;;;;;;;8.23;1.58;;;;;;;25.51;89.91;101836.63;5203534;28;20033;-70
2023/06/26 10:41:38;;;;;;;4.72;1.77;;;;;;;25.45;100.00;101843.91;5198910;28;20021;-71
2023/06/26 10:44:10;;;;;;;4.50;1.55;;;;;;;26.00;100.00;101832.41;5203943;28;20053;-71
2023/06/26 10:46:55;;;;;;;8.20;2.03;;;;;;;26.38;100.00;101830.09;5203302;28;20443;-71
2023/06/26 10:49:28;;;;;;;7.78;1.65;;;;;;;26.60;98.29;101840.13;5203490;28;20031;-70
2023/06/26 10:52:01;;;;;;;6.43;1.50;;;;;;;26.50;100.00;101837.22;5208446;28;20083;-71
2023/06/26 10:54:33;;;;;;;11.63;1.40;;;;;;;26.07;97.16;101857.03;5203557;28;20175;-70
2023/06/26 10:57:07;;;;;;;5.03;1.70;;;;;;;25.56;91.00;101853.22;5203177;28;20020;-71
2023/06/26 10:59:40;;;;;;;5.07;1.60;;;;;;;25.39;90.06;101844.03;5201251;28;20104;-70
2023/06/26 11:02:11;;;;;;;4.57;1.40;;;;;;;25.54;100.00;101845.19;5203422;28;20017;-70
2023/06/26 11:05:00;;;;;;;3.92;1.55;;;;;;;25.72;100.00;101849.69;5203316;28;20033;-70
2023/06/26 11:07:31;;;;;;;6.68;1.70;;;;;;;25.49;92.11;101855.22;5202731;28;20029;-70
2023/06/26 11:10:08;;;;;;;5.72;1.38;;;;;;;24.80;96.46;101844.00;5203138;28;20053;-70
2023/06/26 11:12:42;;;;;;;7.30;1.75;;;;;;;24.58;100.00;101840.16;5203207;28;20584;-71
2023/06/26 11:15:15;;;;;;;11.45;1.63;;;;;;;25.03;100.00;101845.91;5203499;28;20028;-70
2023/06/26 11:17:47;;;;;;;5.68;1.38;;;;;;;25.29;94.94;101850.94;5202222;28;20030;-70
2023/06/26 11:20:17;;;;;;;3.20;1.17;;;;;;;25.53;91.57;101849.00;5202932;28;20013;-70
2023/06/26 11:22:52;;;;;;;2.83;1.17;;;;;;;25.38;87.22;101867.91;5202987;28;20024;-70
2023/06/26 11:25:23;;;;;;;5.25;1.58;;;;;;;25.10;100.00;101871.38;5202994;28;20021;-70
2023/06/26 11:27:54;;;;;;;6.63;1.40;;;;;;;25.05;97.19;101872.06;5202526;28;20025;-70
2023/06/26 11:30:25;;;;;;;6.07;1.40;;;;;;;24.83;99.70;101875.63;5201751;28;20382;-70
2023/06/26 11:33:06;;;;;;;3.42;1.48;;;;;;;24.42;100.00;101878.16;5202229;28;20029;-70
2023/06/26 11:35:38;;;;;;;4.03;1.60;;;;;;;24.52;98.27;101878.41;5199157;28;20104;-70